x

West Santa Barbara 38 Nm West Of Santa Barbara, Ca (46054) Wave Buoy

1:50 - Fri 29th Jul 2016 All times are PDT. -7 hours from GMT.

  • Sig Wave height 5.2ft
  • Swell Direction
  • Peak Period 9s
  • Average Period 6s
  • Wind
    20mph, 25mph gusts
  • Sea Temp 63°f
  • Air Temp 59°f
  • Sea Pressure 1010.8mb
  • West Santa Barbara  38 Nm West Of Santa Barbara, Ca
  • West Santa Barbara  38 Nm West Of Santa Barbara, Ca

More Historic Weather Station data

Upgrade to MSW Pro to gain access to the past 30 days of data for over 8000 Wavebouys and Weather Stations around the globe.

Join Pro

Comparision Forecast

View Surf forecast
   
ven. 07/29 1:50 5ft 9s 6s 20 25 mph 1010.8mb 63f 59f
12:50 5ft 10s 6s 20 22 mph 1010.9mb 63f 59f
11:50 5.5ft 9s 6s 20 25 mph 1011.1mb 63f 59f
10:50 5.5ft 10s 6s 20 25 mph 1011.3mb 64f 58f
9:50 6ft 10s 6s 18 22 mph 1011.5mb 63f 58f
8:50 5.5ft 11s 6s 20 25 mph 1011.2mb 64f 58f
7:50 6ft 10s 6s 20 25 mph 1010.7mb 63f 58f
6:50 5.5ft 10s 6s 20 25 mph 1010.8mb 64f 58f
5:50 5ft 9s 5s 20 25 mph 1010.4mb 64f 58f
4:50 5.5ft 9s 6s 20 25 mph 1010.2mb 64f 58f
3:50 5.5ft 10s 5s 20 22 mph 1010.3mb 64f 58f
2:50 5.5ft 10s 5s 25 29 mph 1009.9mb 64f 58f
1:50 5.5ft 10s 5s 22 27 mph 1010.2mb 64f 58f
12:50 5.5ft 10s 5s 22 27 mph 1010.7mb 64f 59f
jeu. 07/28 11:50 6ft 10s 5s 22 27 mph 1010.9mb 65f 59f
10:50 6ft 9s 5s 22 27 mph 1011mb 65f 60f
9:50 6ft 10s 5s 22 27 mph 1010.9mb 66f 60f
8:50 6ft 10s 5s 25 27 mph 1010.4mb 66f 60f
7:50 6ft 10s 5s 27 31 mph 1009.9mb 66f 60f
6:50 5.5ft 10s 6s 27 31 mph 1009.7mb 66f 60f
5:50 5ft 10s 6s 22 27 mph 1010.5mb 66f 61f
4:50 5.5ft 9s 6s 22 25 mph 1011.1mb 67f 61f
3:50 5ft 9s 6s 18 22 mph 1011.9mb 67f 61f
2:50 5ft 10s 6s 18 20 mph 1012.6mb 67f 60f
1:50 6ft 10s 7s 16 18 mph 1013.3mb 67f 60f
12:50 5ft 10s 6s 18 20 mph 1013.3mb 67f 60f
10:50 5ft 10s 6s 16 20 mph 1013.6mb 66f 59f
9:50 5ft 10s 6s 13 16 mph 1013.3mb 66f 59f
8:50 5ft 9s 6s 13 18 mph 1013.6mb 65f 59f
7:50 5.5ft 10s 7s 13 16 mph 1013.4mb 64f 58f
6:50 5.5ft 10s 7s 16 18 mph 1012.7mb 64f 58f
5:50 5ft 10s 6s 18 20 mph 1011.9mb 63f 58f
4:50 5.5ft 11s 6s 18 20 mph 1011.8mb 63f 58f
3:50 6ft 11s 6s 20 25 mph 1011.7mb 63f 58f
2:50 6ft 10s 6s 20 25 mph 1011.8mb 64f 58f
1:50 6.5ft 10s 6s 20 25 mph 1011.9mb 63f 59f
12:50 5.5ft 10s 6s 22 25 mph 1011.7mb 63f 59f
mer. 07/27 11:50 5ft 10s 5s 22 27 mph 1012mb 62f 59f
10:50 5ft 10s 6s 22 27 mph 1011.9mb 63f 59f
9:50 5ft 10s 6s 22 25 mph 1012mb 63f 59f
8:50 5ft 10s 5s 22 27 mph 1011.8mb 64f 59f
7:50 5ft 10s 6s 20 25 mph 1011.8mb 64f 59f
6:50 4.5ft 10s 6s 20 22 mph 1011.8mb 64f 60f
5:50 4.5ft 10s 6s 18 20 mph 1012.2mb 64f 60f
4:50 4.5ft 10s 6s 16 18 mph 1012.5mb 64f 60f
3:50 4.5ft 10s 6s 16 18 mph 1013mb 64f 60f
2:50 5ft 9s 7s 13 18 mph 1013.6mb 64f 60f
1:50 4.5ft 11s 7s 13 16 mph 1014.1mb 64f 59f
12:50 5ft 9s 7s 11 13 mph 1014.5mb 64f 59f
11:50 4.5ft 10s 7s 11
mph
1014.2mb 64f 60f
10:50 4.5ft 9s 7s 11 13 mph 1013.9mb 63f 60f
9:50 5ft 10s 7s 9 11 mph 1013.8mb 63f 59f
8:50 5ft 10s 7s 9 11 mph 1013.6mb 62f 58f
7:50 5ft 10s 7s 9 11 mph 1013.2mb 62f 59f
6:50 4.5ft 10s 7s 11 13 mph 1012.3mb 60f 60f
5:50 5ft 10s 7s 16 18 mph 1011.5mb 61f 60f
4:50 4.5ft 11s 6s 13 18 mph 1011.3mb 62f 58f
3:50 5ft 9s 7s 11 13 mph 1011.5mb 62f 59f
2:50 5ft 9s 6s 16 18 mph 1011.3mb 62f 58f
1:50 5ft 10s 6s 16 18 mph 1011.3mb 61f 58f
12:50 5ft 10s 6s 18 22 mph 1011.3mb 61f 58f
mar. 07/26 11:50 5ft 9s 5s 20 25 mph 1011.3mb 62f 58f
10:50 6ft 10s 6s 18 22 mph 1011.7mb 61f 58f
9:50 5ft 10s 6s 20 25 mph 1011.3mb 61f 57f
8:50 4ft 8s 6s 20 22 mph 1011.1mb 61f 57f
7:50 4.5ft 9s 6s 16 20 mph 1011mb 60f 58f
6:50 4.5ft 10s 6s 16 20 mph 1011.1mb 59f 58f
5:50 4ft 9s 6s 16 18 mph 1011.6mb 61f 57f
4:50 4.5ft 10s 7s 13 16 mph 1011.8mb 60f 57f
3:50 4.5ft 9s 7s 11 13 mph 1012.4mb 60f 57f
5:50 4ft 14s 6s 11 13 mph 1012.1mb 61f 58f
4:50 4ft 10s 6s 11 13 mph 1012mb 61f 58f
3:50 4ft 9s 6s 13 16 mph 1012.1mb 61f 58f
2:50 5ft 8s 6s 13 16 mph 1012mb 61f 57f
1:50 5ft 10s 6s 16 18 mph 1011.9mb 61f 57f
12:50 5ft 10s 6s 16 20 mph 1011.9mb 61f 57f
lun. 07/25 11:50 5.5ft 8s 6s 18 22 mph 1012.3mb 61f 56f
10:50 6ft 10s 6s 18 20 mph 1012.3mb 60f 56f